createdAt,value
2023-08-17T00:01:34.963Z,73.07
2023-08-17T00:04:01.900Z,72.49
2023-08-17T00:06:28.728Z,72.75
2023-08-17T00:08:55.951Z,72.53
2023-08-17T00:11:22.874Z,72.33
2023-08-17T00:13:49.762Z,71.84
2023-08-17T00:16:16.597Z,72.18
2023-08-17T00:18:43.421Z,73.25
2023-08-17T00:21:10.268Z,74.10
2023-08-17T00:23:37.384Z,73.18
2023-08-17T00:26:04.198Z,74.04
2023-08-17T00:28:30.994Z,73.12
2023-08-17T00:30:57.791Z,72.75
2023-08-17T00:33:24.703Z,73.64
2023-08-17T00:35:51.809Z,73.59
2023-08-17T00:38:18.674Z,74.19
2023-08-17T00:40:45.492Z,73.53
2023-08-17T00:43:12.227Z,73.03
2023-08-17T00:45:39.161Z,72.76
2023-08-17T00:48:09.069Z,72.59
2023-08-17T00:50:36.401Z,72.58
2023-08-17T00:53:03.311Z,74.32
2023-08-17T00:55:30.158Z,73.31
2023-08-17T00:57:57.473Z,72.67
2023-08-17T01:00:24.376Z,73.22
2023-08-17T01:02:51.561Z,73.06
2023-08-17T01:05:18.509Z,73.46
2023-08-17T01:07:45.306Z,73.55
2023-08-17T01:10:12.125Z,73.73
2023-08-17T01:12:52.429Z,73.69
2023-08-17T01:15:22.669Z,73.43
2023-08-17T01:18:02.337Z,72.69
2023-08-17T01:20:29.149Z,72.14
2023-08-17T01:22:58.569Z,72.48
2023-08-17T01:25:25.387Z,73.41
2023-08-17T01:27:52.181Z,74.14
2023-08-17T01:30:19.171Z,74.72
2023-08-17T01:32:49.652Z,74.03
2023-08-17T01:35:48.786Z,74.04
2023-08-17T01:38:20.149Z,73.51
2023-08-17T01:40:47.417Z,73.19
2023-08-17T01:43:14.174Z,72.88
2023-08-17T01:45:41.292Z,72.71
2023-08-17T01:48:08.077Z,72.18
2023-08-17T01:50:34.864Z,72.58
2023-08-17T01:53:01.682Z,72.80
2023-08-17T01:55:28.519Z,72.76
2023-08-17T01:57:55.371Z,72.02
2023-08-17T02:00:22.551Z,72.22
2023-08-17T02:02:49.362Z,72.11
2023-08-17T02:05:16.171Z,73.44
2023-08-17T02:07:43.018Z,74.99
2023-08-17T02:10:10.190Z,75.53
2023-08-17T02:12:37.353Z,74.68
2023-08-17T02:15:04.279Z,74.08
2023-08-17T02:17:31.252Z,73.63
2023-08-17T02:19:58.073Z,73.00
2023-08-17T02:22:24.904Z,73.11
2023-08-17T02:24:51.719Z,73.17
2023-08-17T02:27:18.765Z,72.76
2023-08-17T02:29:45.567Z,72.24
2023-08-17T02:32:12.393Z,71.82
2023-08-17T02:34:39.267Z,72.72
2023-08-17T02:37:06.058Z,73.18
2023-08-17T02:39:33.187Z,73.16
2023-08-17T02:42:00.050Z,72.85
2023-08-17T02:44:28.724Z,73.95
2023-08-17T02:46:55.692Z,73.07
2023-08-17T02:49:22.507Z,73.40
2023-08-17T02:51:49.274Z,72.58
2023-08-17T02:54:16.388Z,72.99
2023-08-17T02:56:43.259Z,72.50
2023-08-17T02:59:10.082Z,72.02
2023-08-17T03:01:36.917Z,71.30
2023-08-17T03:04:03.928Z,71.09
2023-08-17T03:06:31.000Z,70.80
2023-08-17T03:08:57.820Z,71.02
2023-08-17T03:11:24.715Z,72.13
2023-08-17T03:13:51.585Z,70.69
2023-08-17T03:16:18.403Z,70.90
2023-08-17T03:18:45.700Z,70.11
2023-08-17T03:21:13.226Z,69.57
2023-08-17T03:23:40.022Z,69.10
2023-08-17T03:26:06.887Z,69.32
2023-08-17T03:28:33.679Z,68.99
2023-08-17T03:31:00.540Z,68.77
2023-08-17T03:33:27.753Z,68.70
2023-08-17T03:35:54.565Z,68.66
2023-08-17T03:38:21.509Z,68.72
2023-08-17T03:40:48.778Z,68.48
2023-08-17T03:43:15.612Z,68.50
2023-08-17T03:45:42.815Z,68.41
2023-08-17T03:48:10.377Z,68.98
2023-08-17T03:50:37.184Z,69.97
2023-08-17T03:53:04.146Z,70.77
2023-08-17T03:55:31.059Z,71.09
2023-08-17T03:57:57.796Z,71.71
2023-08-17T04:00:24.814Z,72.00
2023-08-17T04:02:52.026Z,71.98
2023-08-17T04:05:18.847Z,72.10
2023-08-17T04:07:45.610Z,71.61
2023-08-17T04:10:12.399Z,72.23
2023-08-17T04:12:39.243Z,73.11
2023-08-17T04:15:06.699Z,73.53
2023-08-17T04:17:33.523Z,73.48
2023-08-17T04:20:00.349Z,72.94
2023-08-17T04:22:27.113Z,73.35
2023-08-17T04:24:53.918Z,73.14
2023-08-17T04:27:20.705Z,72.16
2023-08-17T04:29:47.498Z,71.65
2023-08-17T04:32:17.583Z,70.87
2023-08-17T04:34:46.004Z,71.49
2023-08-17T04:37:12.882Z,71.14
2023-08-17T04:39:39.669Z,70.61
2023-08-17T04:42:06.939Z,71.61
2023-08-17T04:44:34.443Z,69.51
2023-08-17T04:47:01.344Z,69.02
2023-08-17T04:49:28.096Z,67.78
2023-08-17T04:51:54.895Z,67.79
2023-08-17T04:54:21.950Z,68.46
2023-08-17T04:56:48.791Z,67.22
2023-08-17T04:59:15.611Z,65.57
2023-08-17T05:01:42.864Z,65.28
2023-08-17T05:04:09.904Z,66.62
2023-08-17T05:06:38.257Z,67.48
2023-08-17T05:09:07.217Z,67.46
2023-08-17T05:11:34.234Z,68.35
2023-08-17T05:14:01.167Z,67.47
2023-08-17T05:16:27.921Z,65.37
2023-08-17T05:18:54.933Z,60.46
2023-08-17T05:21:21.856Z,54.98
2023-08-17T05:23:48.998Z,50.53
2023-08-17T05:26:16.705Z,48.71
2023-08-17T05:28:44.560Z,47.91
2023-08-17T05:31:11.363Z,46.48
2023-08-17T05:33:38.206Z,44.66
2023-08-17T05:36:05.205Z,45.00
2023-08-17T05:38:32.324Z,43.85
2023-08-17T05:40:59.407Z,43.34
2023-08-17T05:43:26.416Z,40.97
2023-08-17T05:45:53.280Z,41.25
2023-08-17T05:48:20.546Z,43.45
2023-08-17T05:50:48.263Z,45.88
2023-08-17T05:53:15.060Z,48.09
2023-08-17T05:55:41.925Z,49.22
2023-08-17T05:58:08.697Z,50.46
2023-08-17T06:00:36.505Z,52.20
2023-08-17T06:03:03.627Z,54.08
2023-08-17T06:05:31.435Z,55.01
2023-08-17T06:07:58.411Z,55.56
2023-08-17T06:10:28.498Z,56.21
2023-08-17T06:12:56.116Z,56.86
2023-08-17T06:15:23.535Z,57.37
2023-08-17T06:17:53.688Z,58.33
2023-08-17T06:20:20.703Z,58.42
2023-08-17T06:22:48.432Z,58.46
2023-08-17T06:25:15.521Z,58.62
2023-08-17T06:27:43.058Z,58.16
2023-08-17T06:30:10.574Z,57.69
2023-08-17T06:32:37.692Z,57.03
2023-08-17T06:35:04.718Z,56.39
2023-08-17T06:37:31.624Z,55.45
2023-08-17T06:39:58.455Z,54.70
2023-08-17T06:42:25.226Z,52.87
2023-08-17T06:44:52.442Z,51.39
2023-08-17T06:47:19.264Z,49.40
2023-08-17T06:49:46.081Z,49.24
2023-08-17T06:52:12.893Z,49.02
2023-08-17T06:54:40.102Z,48.51
2023-08-17T06:57:06.914Z,48.80
2023-08-17T06:59:36.932Z,48.33
2023-08-17T07:02:03.874Z,48.69
2023-08-17T07:04:31.754Z,49.24
2023-08-17T07:06:58.638Z,49.21
2023-08-17T07:09:25.472Z,48.54
2023-08-17T07:11:52.767Z,48.25
2023-08-17T07:14:21.818Z,48.33
2023-08-17T07:16:49.920Z,48.17
2023-08-17T07:19:16.745Z,46.39
2023-08-17T07:21:43.610Z,46.13
2023-08-17T07:24:16.750Z,43.49
2023-08-17T07:26:44.082Z,36.38
2023-08-17T07:29:10.877Z,30.72
2023-08-17T07:31:38.964Z,26.72
2023-08-17T07:34:06.924Z,24.21
2023-08-17T07:36:34.170Z,24.71
2023-08-17T07:39:01.292Z,22.55
2023-08-17T07:41:28.198Z,21.57
2023-08-17T07:43:55.077Z,20.11
2023-08-17T07:46:21.934Z,19.52
2023-08-17T07:48:48.843Z,19.80
2023-08-17T07:51:15.979Z,19.81
2023-08-17T07:53:42.816Z,18.54
2023-08-17T07:56:09.702Z,18.00
2023-08-17T07:58:36.492Z,16.58
2023-08-17T08:01:04.419Z,15.88
2023-08-17T08:03:32.315Z,15.92
2023-08-17T08:05:59.446Z,16.16
2023-08-17T08:08:26.277Z,15.40
2023-08-17T08:10:54.356Z,15.75
2023-08-17T08:13:21.294Z,16.60
2023-08-17T08:15:48.182Z,14.80
2023-08-17T08:18:15.022Z,16.52
2023-08-17T08:20:41.985Z,15.94
2023-08-17T08:23:09.059Z,14.99
2023-08-17T08:25:36.215Z,14.25
2023-08-17T08:28:03.062Z,17.62
2023-08-17T08:30:29.873Z,17.49
2023-08-17T08:32:59.290Z,18.37
2023-08-17T08:35:26.193Z,17.49
2023-08-17T08:37:53.030Z,16.52
2023-08-17T08:40:19.962Z,16.01
2023-08-17T08:42:46.728Z,15.40
2023-08-17T08:45:13.638Z,15.63
2023-08-17T08:47:40.751Z,15.60
2023-08-17T08:50:08.581Z,16.59
2023-08-17T08:52:37.773Z,15.23
2023-08-17T08:55:10.620Z,16.10
2023-08-17T08:57:37.488Z,15.87
2023-08-17T09:00:05.129Z,16.67
2023-08-17T09:02:32.320Z,16.20
2023-08-17T09:04:59.125Z,16.03
2023-08-17T09:07:26.204Z,16.20
2023-08-17T09:09:53.341Z,14.83
2023-08-17T09:12:33.649Z,14.61
2023-08-17T09:15:06.571Z,14.07
2023-08-17T09:17:35.499Z,14.59
2023-08-17T09:20:02.560Z,15.56
2023-08-17T09:22:40.894Z,14.97
2023-08-17T09:25:08.225Z,14.99
2023-08-17T09:27:35.500Z,15.54
2023-08-17T09:30:12.091Z,16.78
2023-08-17T09:32:58.010Z,15.99
2023-08-17T09:35:27.180Z,15.83
2023-08-17T09:37:54.823Z,16.07
2023-08-17T09:40:22.861Z,15.19
2023-08-17T09:42:50.085Z,15.93
2023-08-17T09:45:18.860Z,15.87
2023-08-17T09:47:45.702Z,15.76
2023-08-17T09:50:12.627Z,16.24
2023-08-17T09:52:40.002Z,17.01
2023-08-17T09:55:08.583Z,15.77
2023-08-17T09:57:36.813Z,16.32
2023-08-17T10:00:03.837Z,15.97
2023-08-17T10:02:30.764Z,16.51
2023-08-17T10:04:58.870Z,15.32
2023-08-17T10:07:33.249Z,15.91
2023-08-17T10:10:05.217Z,16.87
2023-08-17T10:12:36.365Z,17.06
2023-08-17T10:15:09.892Z,16.88
2023-08-17T10:17:45.487Z,17.44
2023-08-17T10:20:12.318Z,17.25
2023-08-17T10:23:18.708Z,17.65
2023-08-17T10:25:51.252Z,18.15
2023-08-17T10:28:18.533Z,20.81
2023-08-17T10:30:45.417Z,23.29
2023-08-17T10:33:12.343Z,23.81
2023-08-17T10:35:39.282Z,25.15
2023-08-17T10:38:10.682Z,26.91
2023-08-17T10:40:38.973Z,28.06
2023-08-17T10:43:05.834Z,28.94
2023-08-17T10:45:38.022Z,28.93
2023-08-17T10:48:09.609Z,29.26
2023-08-17T10:53:13.476Z,31.13
2023-08-17T10:55:42.114Z,30.78
2023-08-17T10:58:16.085Z,31.54
2023-08-17T11:00:45.360Z,31.57
2023-08-17T11:03:21.189Z,31.68
2023-08-17T11:05:54.913Z,32.06
2023-08-17T11:08:33.236Z,32.04
2023-08-17T11:11:03.414Z,30.91
2023-08-17T11:13:32.077Z,30.48
2023-08-17T11:16:03.420Z,30.77
2023-08-17T11:18:32.053Z,31.85
2023-08-17T11:20:58.947Z,32.06
2023-08-17T11:23:26.480Z,31.31
2023-08-17T11:25:56.361Z,30.49
2023-08-17T11:28:23.730Z,31.36
2023-08-17T11:31:18.058Z,32.33
2023-08-17T11:33:46.272Z,31.52
2023-08-17T11:36:13.199Z,31.23
2023-08-17T11:38:42.104Z,31.33
2023-08-17T11:41:18.396Z,31.86
2023-08-17T11:43:45.962Z,31.24
2023-08-17T11:46:13.189Z,32.74
2023-08-17T11:48:40.144Z,32.44
2023-08-17T11:51:07.089Z,34.25
2023-08-17T11:53:37.315Z,32.73
2023-08-17T11:56:07.082Z,32.43
2023-08-17T11:58:42.306Z,31.76
2023-08-17T12:01:13.236Z,32.41
2023-08-17T12:03:41.241Z,32.27
2023-08-17T12:06:08.403Z,31.26
2023-08-17T12:08:35.797Z,31.67
2023-08-17T12:11:04.231Z,33.14
2023-08-17T12:13:33.392Z,32.08
2023-08-17T12:16:00.384Z,32.87
2023-08-17T12:18:27.291Z,32.11
2023-08-17T12:20:54.878Z,32.70
2023-08-17T12:23:21.707Z,32.19
2023-08-17T12:25:56.537Z,33.17
2023-08-17T12:28:24.715Z,31.38
2023-08-17T12:30:59.585Z,32.81
2023-08-17T12:33:26.449Z,32.60
2023-08-17T12:35:53.393Z,33.10
2023-08-17T12:38:20.573Z,34.53
2023-08-17T12:40:47.658Z,32.66
2023-08-17T12:43:16.012Z,32.16
2023-08-17T12:45:43.011Z,32.67
2023-08-17T12:48:09.867Z,32.77
2023-08-17T12:50:43.494Z,32.53
2023-08-17T12:53:11.170Z,32.54
2023-08-17T12:55:38.124Z,33.35
2023-08-17T12:58:06.136Z,33.97
2023-08-17T13:00:33.144Z,35.03
2023-08-17T13:03:00.061Z,33.90
2023-08-17T13:05:27.378Z,32.60
2023-08-17T13:07:54.254Z,33.93
2023-08-17T13:10:21.186Z,34.17
2023-08-17T13:12:48.581Z,33.66
2023-08-17T13:15:15.698Z,33.06
2023-08-17T13:17:42.926Z,32.00
2023-08-17T13:20:11.640Z,31.93
2023-08-17T13:22:38.644Z,34.37
2023-08-17T13:25:06.037Z,37.02
2023-08-17T13:27:33.835Z,39.58
2023-08-17T13:30:00.830Z,39.50
2023-08-17T13:32:28.760Z,37.80
2023-08-17T13:34:55.874Z,37.67
2023-08-17T13:37:22.971Z,35.42
2023-08-17T13:39:49.792Z,34.41
2023-08-17T13:42:16.922Z,36.06
2023-08-17T13:44:43.730Z,34.70
2023-08-17T13:47:10.547Z,34.80
2023-08-17T13:49:37.336Z,34.86
2023-08-17T13:52:04.671Z,35.48
2023-08-17T13:54:31.458Z,36.52
2023-08-17T13:56:58.233Z,35.60
2023-08-17T13:59:25.122Z,36.12
2023-08-17T14:01:52.278Z,36.01
2023-08-17T14:04:19.914Z,36.04
2023-08-17T14:06:46.816Z,34.63
2023-08-17T14:09:13.569Z,34.35
2023-08-17T14:11:40.558Z,34.24
2023-08-17T14:14:08.661Z,35.65
2023-08-17T14:16:37.701Z,36.89
2023-08-17T14:19:05.928Z,37.91
2023-08-17T14:21:32.859Z,37.27
2023-08-17T14:23:59.700Z,38.20
2023-08-17T14:26:26.499Z,39.04
2023-08-17T14:28:53.659Z,40.55
2023-08-17T14:31:21.623Z,40.21
2023-08-17T14:33:49.181Z,39.53
2023-08-17T14:38:46.294Z,41.65
2023-08-17T14:41:13.640Z,44.12
2023-08-17T14:43:40.784Z,42.62
2023-08-17T14:46:07.770Z,43.15
2023-08-17T14:48:34.725Z,42.51
2023-08-17T14:51:03.275Z,42.40
2023-08-17T14:53:30.394Z,41.56
2023-08-17T14:55:57.995Z,41.48
2023-08-17T14:58:25.063Z,40.99
2023-08-17T15:00:51.873Z,41.16
2023-08-17T15:03:24.424Z,40.70
2023-08-17T15:05:51.961Z,41.17
2023-08-17T15:08:19.095Z,40.44
2023-08-17T15:10:48.945Z,40.99
2023-08-17T15:13:16.580Z,40.77
2023-08-17T15:15:45.660Z,42.24
2023-08-17T15:18:12.829Z,41.32
2023-08-17T15:20:39.956Z,41.27
2023-08-17T15:23:07.484Z,40.53
2023-08-17T15:25:34.789Z,41.43
2023-08-17T15:28:01.975Z,41.42
2023-08-17T15:30:31.489Z,41.76
2023-08-17T15:32:58.646Z,42.41
2023-08-17T15:35:25.815Z,43.79
2023-08-17T15:37:53.259Z,44.64
2023-08-17T15:40:20.902Z,45.79
2023-08-17T15:42:48.744Z,46.38
2023-08-17T15:45:15.669Z,47.19
2023-08-17T15:47:42.942Z,48.57
2023-08-17T15:50:11.401Z,48.55
2023-08-17T15:52:38.339Z,50.19
2023-08-17T15:55:05.641Z,50.67
2023-08-17T15:57:32.444Z,52.65
2023-08-17T15:59:59.319Z,52.76
2023-08-17T16:02:29.596Z,52.24
2023-08-17T16:04:56.481Z,52.41
2023-08-17T16:07:23.423Z,52.30
2023-08-17T16:09:50.454Z,52.85
2023-08-17T16:12:17.488Z,55.57
2023-08-17T16:14:49.527Z,56.47
2023-08-17T16:17:17.206Z,57.02
2023-08-17T16:19:44.230Z,56.24
2023-08-17T16:22:16.916Z,57.42
2023-08-17T16:24:47.047Z,58.66
2023-08-17T16:27:13.897Z,58.15
2023-08-17T16:29:40.782Z,59.40
2023-08-17T16:32:09.941Z,59.16
2023-08-17T16:34:37.277Z,58.55
2023-08-17T16:37:07.992Z,59.43
2023-08-17T16:39:37.508Z,60.24
2023-08-17T16:42:04.332Z,59.84
2023-08-17T16:44:31.895Z,60.47
2023-08-17T16:47:01.309Z,59.70
2023-08-17T16:49:30.264Z,59.98
2023-08-17T16:51:59.282Z,61.87
2023-08-17T16:54:26.309Z,60.84
2023-08-17T16:56:54.153Z,60.14
2023-08-17T16:59:22.082Z,61.93
2023-08-17T17:01:49.075Z,61.49
2023-08-17T17:04:22.365Z,63.67
2023-08-17T17:06:49.341Z,63.14
2023-08-17T17:09:16.610Z,59.56
2023-08-17T17:11:43.853Z,63.00
2023-08-17T17:14:11.154Z,63.65
2023-08-17T17:16:38.123Z,61.68
2023-08-17T17:19:05.300Z,62.31
2023-08-17T17:21:32.223Z,58.39
2023-08-17T17:23:59.307Z,58.45
2023-08-17T17:26:26.511Z,60.13
2023-08-17T17:28:53.360Z,59.97
2023-08-17T17:31:20.420Z,61.27
2023-08-17T17:33:47.354Z,63.62
2023-08-17T17:36:14.211Z,63.54
2023-08-17T17:38:41.672Z,63.59
2023-08-17T17:41:08.655Z,63.50
2023-08-17T17:43:35.477Z,63.60
2023-08-17T17:46:02.253Z,61.41
2023-08-17T17:48:29.231Z,63.25
2023-08-17T17:50:56.026Z,63.87
2023-08-17T17:53:23.265Z,65.70
2023-08-17T17:55:50.045Z,65.95
2023-08-17T17:58:16.895Z,66.50
2023-08-17T18:00:43.868Z,67.06
2023-08-17T18:03:14.894Z,66.04
2023-08-17T18:05:43.022Z,66.53
2023-08-17T18:08:11.429Z,66.97
2023-08-17T18:10:40.128Z,67.12
2023-08-17T18:13:08.626Z,68.16
2023-08-17T18:15:36.262Z,68.29
2023-08-17T18:18:04.551Z,67.18
2023-08-17T18:20:32.108Z,66.67
2023-08-17T18:22:59.378Z,67.09
2023-08-17T18:25:26.595Z,66.82
2023-08-17T18:27:53.678Z,65.64
2023-08-17T18:30:20.647Z,65.63
2023-08-17T18:32:47.995Z,67.48
2023-08-17T18:35:15.039Z,68.58
2023-08-17T18:37:43.055Z,68.00
2023-08-17T18:40:10.992Z,68.20
2023-08-17T18:42:37.930Z,68.09
2023-08-17T18:45:05.099Z,67.48
2023-08-17T18:47:31.967Z,67.94
2023-08-17T18:49:58.861Z,66.88
2023-08-17T18:52:27.961Z,69.16
2023-08-17T18:55:12.381Z,69.45
2023-08-17T18:57:39.865Z,68.86
2023-08-17T19:00:09.147Z,70.34
2023-08-17T19:02:36.397Z,71.01
2023-08-17T19:05:03.879Z,70.82
2023-08-17T19:07:30.984Z,71.76
2023-08-17T19:09:57.896Z,70.00
2023-08-17T19:12:24.906Z,69.96
2023-08-17T19:14:52.215Z,69.53
2023-08-17T19:17:19.251Z,69.44
2023-08-17T19:19:46.463Z,69.86
2023-08-17T19:22:15.626Z,68.69
2023-08-17T19:24:42.701Z,69.85
2023-08-17T19:27:09.607Z,69.25
2023-08-17T19:29:41.275Z,69.55
2023-08-17T19:32:35.297Z,69.83
2023-08-17T19:35:09.944Z,68.68
2023-08-17T19:37:37.611Z,68.26
2023-08-17T19:40:06.981Z,69.71
2023-08-17T19:42:33.828Z,69.52
2023-08-17T19:45:02.092Z,68.79
2023-08-17T19:47:30.024Z,67.75
2023-08-17T19:49:57.207Z,68.68
2023-08-17T19:52:24.235Z,68.78
2023-08-17T19:54:53.236Z,68.28
2023-08-17T19:57:21.472Z,67.34
2023-08-17T19:59:48.658Z,67.66
2023-08-17T20:02:15.977Z,68.42
2023-08-17T20:04:43.141Z,68.67
2023-08-17T20:07:10.403Z,68.13
2023-08-17T20:09:37.304Z,67.71
2023-08-17T20:12:04.492Z,67.11
2023-08-17T20:14:31.662Z,67.22
2023-08-17T20:16:58.630Z,67.24
2023-08-17T20:19:25.530Z,66.91
2023-08-17T20:21:52.392Z,67.30
2023-08-17T20:24:19.233Z,67.86
2023-08-17T20:26:47.188Z,69.16
2023-08-17T20:29:14.559Z,67.79
2023-08-17T20:31:41.516Z,67.75
2023-08-17T20:34:08.471Z,68.84
2023-08-17T20:36:35.395Z,67.32
2023-08-17T20:39:10.378Z,66.82
2023-08-17T20:41:37.615Z,69.61
2023-08-17T20:44:04.732Z,70.12
2023-08-17T20:46:31.622Z,70.98
2023-08-17T20:48:58.594Z,71.37
2023-08-17T20:51:25.996Z,69.89
2023-08-17T20:53:53.596Z,70.26
2023-08-17T20:56:21.000Z,69.27
2023-08-17T20:58:48.002Z,70.70
2023-08-17T21:01:17.431Z,69.78
2023-08-17T21:03:49.986Z,70.52
2023-08-17T21:06:16.981Z,70.14
2023-08-17T21:08:44.651Z,70.35
2023-08-17T21:11:12.156Z,70.61
2023-08-17T21:13:39.509Z,70.00
2023-08-17T21:16:07.021Z,70.03
2023-08-17T21:18:34.121Z,70.52
2023-08-17T21:21:01.050Z,70.61
2023-08-17T21:23:31.693Z,71.04
2023-08-17T21:26:00.127Z,69.20
2023-08-17T21:28:27.117Z,69.38
2023-08-17T21:31:00.186Z,70.50
2023-08-17T21:33:27.078Z,69.89
2023-08-17T21:35:57.889Z,69.00
2023-08-17T21:38:24.744Z,68.76
2023-08-17T21:41:01.045Z,69.34
2023-08-17T21:43:30.131Z,68.99
2023-08-17T21:45:57.606Z,68.84
2023-08-17T21:48:24.845Z,68.67
2023-08-17T21:50:51.706Z,68.11
2023-08-17T21:53:21.855Z,68.07
2023-08-17T21:55:49.385Z,68.75
2023-08-17T21:58:18.747Z,68.79
2023-08-17T22:00:46.323Z,68.47
2023-08-17T22:03:13.796Z,69.00
2023-08-17T22:05:40.781Z,69.62
2023-08-17T22:08:07.696Z,69.76
2023-08-17T22:10:34.544Z,69.80
2023-08-17T22:13:01.568Z,69.41
2023-08-17T22:15:28.708Z,70.21
2023-08-17T22:17:55.726Z,69.37
2023-08-17T22:20:22.592Z,69.11
2023-08-17T22:22:49.633Z,69.08
2023-08-17T22:25:16.617Z,69.04
2023-08-17T22:27:43.756Z,69.68
2023-08-17T22:30:11.385Z,69.87
2023-08-17T22:32:38.211Z,70.25
2023-08-17T22:35:06.032Z,70.14
2023-08-17T22:37:32.816Z,71.71
2023-08-17T22:39:59.633Z,71.29
2023-08-17T22:42:26.745Z,71.48
2023-08-17T22:44:53.564Z,71.56
2023-08-17T22:47:20.368Z,71.59
2023-08-17T22:49:47.274Z,70.85
2023-08-17T22:52:14.010Z,70.43
2023-08-17T22:54:40.876Z,70.03
2023-08-17T22:57:07.931Z,70.18
2023-08-17T22:59:34.722Z,70.03
2023-08-17T23:02:02.154Z,69.64
2023-08-17T23:04:29.391Z,69.59
2023-08-17T23:06:56.384Z,69.77
2023-08-17T23:09:23.512Z,69.56
2023-08-17T23:11:50.357Z,69.45
2023-08-17T23:14:17.158Z,69.58
2023-08-17T23:16:44.080Z,69.35
2023-08-17T23:19:10.832Z,69.18
2023-08-17T23:21:37.679Z,70.29
2023-08-17T23:24:05.223Z,69.78
2023-08-17T23:26:32.600Z,70.66
2023-08-17T23:29:01.959Z,71.46
2023-08-17T23:31:28.750Z,70.15
2023-08-17T23:33:55.724Z,70.00
2023-08-17T23:36:22.824Z,69.22
2023-08-17T23:38:49.774Z,70.48
2023-08-17T23:41:16.716Z,69.30
2023-08-17T23:43:43.632Z,69.62
2023-08-17T23:46:10.479Z,69.94
2023-08-17T23:48:37.445Z,69.46
2023-08-17T23:51:04.245Z,69.32
2023-08-17T23:53:31.265Z,69.45
2023-08-17T23:55:58.284Z,69.66
2023-08-17T23:58:25.091Z,69.79
